createdAt,value
2022-08-20T00:01:12.744Z,20.03
2022-08-20T00:04:06.837Z,20.06
2022-08-20T00:07:00.449Z,20.07
2022-08-20T00:09:56.959Z,20.04
2022-08-20T00:12:52.887Z,19.96
2022-08-20T00:15:39.759Z,20.02
2022-08-20T00:18:09.784Z,20.04
2022-08-20T00:21:49.853Z,20.04
2022-08-20T00:24:22.375Z,20.04
2022-08-20T00:27:09.771Z,19.97
2022-08-20T00:29:40.119Z,20.04
2022-08-20T00:32:12.131Z,20.03
2022-08-20T00:34:53.662Z,20.05
2022-08-20T00:38:17.376Z,20.06
2022-08-20T00:41:18.772Z,20.11
2022-08-20T00:44:23.689Z,20.06
2022-08-20T00:47:09.543Z,20.11
2022-08-20T00:49:39.374Z,20.15
2022-08-20T00:52:24.010Z,20.14
2022-08-20T00:55:27.468Z,20.18
2022-08-20T00:58:28.985Z,20.20
2022-08-20T01:01:13.066Z,20.21
2022-08-20T01:03:45.399Z,20.26
2022-08-20T01:06:14.441Z,20.23
2022-08-20T01:09:02.714Z,20.22
2022-08-20T01:11:37.119Z,20.19
2022-08-20T01:14:35.122Z,20.14
2022-08-20T01:17:08.684Z,20.06
2022-08-20T01:20:10.844Z,19.95
2022-08-20T01:23:27.581Z,19.78
2022-08-20T01:26:27.831Z,19.66
2022-08-20T01:29:25.893Z,19.56
2022-08-20T01:32:01.515Z,19.64
2022-08-20T01:34:45.986Z,19.67
2022-08-20T01:37:39.645Z,19.73
2022-08-20T01:40:14.789Z,19.77
2022-08-20T01:42:59.911Z,19.85
2022-08-20T01:45:30.967Z,19.88
2022-08-20T01:48:26.729Z,19.90
2022-08-20T01:51:27.021Z,19.89
2022-08-20T01:54:00.064Z,19.85
2022-08-20T01:57:03.283Z,19.80
2022-08-20T01:59:32.535Z,19.74
2022-08-20T02:02:16.089Z,19.70
2022-08-20T02:04:45.388Z,19.70
2022-08-20T02:07:30.298Z,19.56
2022-08-20T02:10:00.384Z,19.51
2022-08-20T02:12:45.528Z,19.47
2022-08-20T02:15:14.616Z,19.34
2022-08-20T02:18:08.480Z,19.23
2022-08-20T02:20:37.682Z,19.22
2022-08-20T02:23:07.556Z,19.23
2022-08-20T02:25:40.376Z,19.20
2022-08-20T02:28:14.331Z,19.23
2022-08-20T02:31:00.756Z,19.22
2022-08-20T02:34:21.791Z,19.11
2022-08-20T02:36:33.660Z,19.09
2022-08-20T02:39:18.687Z,18.96
2022-08-20T02:42:12.925Z,18.96
2022-08-20T02:44:45.149Z,18.94
2022-08-20T02:48:07.642Z,18.95
2022-08-20T02:50:58.061Z,18.97
2022-08-20T02:53:33.443Z,18.98
2022-08-20T02:56:03.097Z,19.04
2022-08-20T02:59:04.808Z,19.02
2022-08-20T03:01:34.608Z,19.09
2022-08-20T03:04:58.622Z,19.13
2022-08-20T03:07:31.214Z,19.21
2022-08-20T03:10:15.047Z,19.24
2022-08-20T03:12:44.141Z,19.29
2022-08-20T03:15:17.761Z,19.35
2022-08-20T03:24:45.758Z,19.35
2022-08-20T03:28:15.375Z,19.27
2022-08-20T03:31:01.676Z,19.26
2022-08-20T03:33:52.755Z,19.24
2022-08-20T03:37:16.724Z,19.19
2022-08-20T03:39:45.749Z,19.23
2022-08-20T03:42:42.087Z,19.25
2022-08-20T03:46:04.962Z,19.26
2022-08-20T03:48:59.722Z,19.33
2022-08-20T03:51:56.385Z,19.42
2022-08-20T03:54:31.893Z,19.51
2022-08-20T03:58:02.646Z,19.56
2022-08-20T04:00:36.365Z,19.56
2022-08-20T04:03:18.373Z,19.62
2022-08-20T04:05:47.618Z,19.62
2022-08-20T04:08:24.453Z,19.63
2022-08-20T04:10:58.453Z,19.68
2022-08-20T04:13:30.505Z,19.67
2022-08-20T04:16:03.808Z,19.65
2022-08-20T04:18:34.475Z,19.70
2022-08-20T04:21:05.924Z,19.84
2022-08-20T04:23:34.982Z,19.96
2022-08-20T04:26:03.887Z,20.08
2022-08-20T04:28:34.010Z,20.17
2022-08-20T04:31:03.055Z,20.15
2022-08-20T04:33:33.708Z,20.27
2022-08-20T04:49:47.747Z,20.87
2022-08-20T04:52:33.675Z,20.94
2022-08-20T04:55:03.119Z,21.05
2022-08-20T04:57:39.154Z,21.13
2022-08-20T05:00:34.892Z,21.16
2022-08-20T05:09:59.864Z,21.33
2022-08-20T05:12:36.289Z,21.42
2022-08-20T05:15:07.701Z,21.53
2022-08-20T05:17:45.816Z,21.57
2022-08-20T05:20:22.860Z,21.53
2022-08-20T05:23:01.330Z,21.55
2022-08-20T05:25:36.865Z,21.58
2022-08-20T05:28:51.246Z,21.65
2022-08-20T05:31:33.338Z,21.75
2022-08-20T05:34:11.394Z,21.81
2022-08-20T05:36:51.506Z,21.96
2022-08-20T05:39:43.315Z,22.03
2022-08-20T05:42:40.515Z,22.13
2022-08-20T05:45:41.335Z,22.25
2022-08-20T05:48:22.999Z,22.26
2022-08-20T05:50:56.282Z,22.28
2022-08-20T05:53:31.844Z,22.47
2022-08-20T05:56:11.926Z,22.44
2022-08-20T05:59:37.105Z,22.60
2022-08-20T06:02:32.950Z,22.74
2022-08-20T06:05:16.895Z,22.70
2022-08-20T06:08:54.345Z,22.78
2022-08-20T06:11:51.614Z,22.95
2022-08-20T06:14:53.517Z,23.05
2022-08-20T06:17:58.198Z,23.17
2022-08-20T06:20:29.551Z,23.33
2022-08-20T06:23:01.409Z,23.30
2022-08-20T06:25:38.128Z,23.38
2022-08-20T06:28:07.900Z,23.57
2022-08-20T06:30:37.549Z,23.67
2022-08-20T06:33:08.370Z,23.75
2022-08-20T06:35:40.894Z,23.85
2022-08-20T06:38:14.856Z,23.92
2022-08-20T06:41:40.505Z,23.99
2022-08-20T06:44:12.609Z,24.02
2022-08-20T06:50:14.814Z,24.21
2022-08-20T06:52:52.791Z,24.31
2022-08-20T06:55:23.261Z,24.33
2022-08-20T06:58:15.608Z,24.44
2022-08-20T07:01:09.606Z,24.51
2022-08-20T07:03:54.553Z,24.58
2022-08-20T07:06:26.190Z,24.63
2022-08-20T07:08:56.735Z,24.74
2022-08-20T07:11:35.350Z,24.83
2022-08-20T07:14:27.369Z,24.88
2022-08-20T07:17:29.888Z,24.92
2022-08-20T07:20:18.887Z,24.93
2022-08-20T07:22:49.447Z,24.88
2022-08-20T07:25:22.799Z,24.99
2022-08-20T07:27:52.499Z,24.99
2022-08-20T07:30:55.786Z,25.15
2022-08-20T07:34:19.660Z,25.16
2022-08-20T07:36:50.729Z,25.13
2022-08-20T07:40:05.867Z,25.22
2022-08-20T07:42:35.087Z,25.33
2022-08-20T07:45:11.597Z,25.31
2022-08-20T07:51:38.390Z,25.28
2022-08-20T07:54:34.834Z,25.48
2022-08-20T07:57:40.167Z,25.46
2022-08-20T08:00:26.413Z,25.52
2022-08-20T08:03:15.819Z,25.62
2022-08-20T08:06:03.653Z,25.68
2022-08-20T08:15:59.217Z,25.61
2022-08-20T09:23:43.946Z,27.54
2022-08-20T09:38:01.435Z,27.75
2022-08-20T09:48:01.938Z,27.78
2022-08-20T09:50:36.549Z,27.97
2022-08-20T09:53:08.130Z,28.06
2022-08-20T10:25:58.880Z,28.48
2022-08-20T10:29:07.521Z,28.61
2022-08-20T10:32:17.279Z,28.64
2022-08-20T10:34:49.683Z,28.51
2022-08-20T10:37:25.989Z,28.52
2022-08-20T10:39:57.746Z,28.57
2022-08-20T20:59:59.501Z,23.17
2022-08-20T21:02:28.369Z,23.20
2022-08-20T21:05:08.306Z,23.13
2022-08-20T21:07:50.912Z,23.05
2022-08-20T21:10:44.957Z,23.04
2022-08-20T21:13:25.052Z,22.95
2022-08-20T21:16:33.519Z,22.86
2022-08-20T21:19:15.146Z,22.82
2022-08-20T21:21:47.354Z,22.76
2022-08-20T21:28:11.575Z,22.71
2022-08-20T21:30:58.396Z,22.65
2022-08-20T21:33:30.957Z,22.68
2022-08-20T21:35:59.697Z,22.64
2022-08-20T21:38:32.097Z,22.57
2022-08-20T21:41:05.358Z,22.51
2022-08-20T21:43:34.313Z,22.55
2022-08-20T21:46:12.799Z,22.52
2022-08-20T21:48:49.996Z,22.48
2022-08-20T21:51:18.805Z,22.45
2022-08-20T21:54:04.125Z,22.40
2022-08-20T21:57:01.931Z,22.38
2022-08-20T21:59:32.905Z,22.34
2022-08-20T22:02:05.165Z,22.30
2022-08-20T22:04:37.251Z,22.26
2022-08-20T22:07:06.599Z,22.27
2022-08-20T22:09:38.630Z,22.30
2022-08-20T22:12:18.221Z,22.32
2022-08-20T22:14:47.743Z,22.37
2022-08-20T22:17:16.771Z,22.34
2022-08-20T22:23:07.355Z,22.40
2022-08-20T22:25:36.452Z,22.37
2022-08-20T22:28:05.205Z,22.32
2022-08-20T22:30:34.426Z,22.30
2022-08-20T22:33:08.210Z,22.34
2022-08-20T22:35:37.964Z,22.36
2022-08-20T22:38:06.890Z,22.26
2022-08-20T22:40:35.793Z,22.29
2022-08-20T22:43:04.705Z,22.25
2022-08-20T22:45:47.776Z,22.21
2022-08-20T22:48:19.858Z,22.21
2022-08-20T22:50:50.035Z,22.19
2022-08-20T22:53:21.119Z,22.18
2022-08-20T22:55:50.223Z,22.17
2022-08-20T22:58:19.745Z,22.18
2022-08-20T23:01:02.509Z,22.15
2022-08-20T23:03:39.858Z,22.14
2022-08-20T23:06:10.854Z,22.10
2022-08-20T23:08:42.244Z,22.08
2022-08-20T23:11:11.952Z,22.04
2022-08-20T23:13:40.813Z,22.07
2022-08-20T23:16:09.863Z,22.03
2022-08-20T23:18:38.986Z,22.07
2022-08-20T23:21:08.001Z,22.04
2022-08-20T23:23:37.287Z,22.07
2022-08-20T23:26:06.745Z,22.05
2022-08-20T23:28:36.141Z,22.04
2022-08-20T23:31:05.224Z,22.01
2022-08-20T23:33:34.030Z,22.00
2022-08-20T23:36:07.621Z,21.94
2022-08-20T23:38:36.870Z,21.89
2022-08-20T23:41:05.878Z,21.81
2022-08-20T23:43:34.881Z,21.78
2022-08-20T23:46:06.142Z,21.74
2022-08-20T23:48:36.255Z,21.68
2022-08-20T23:51:05.865Z,21.65
2022-08-20T23:53:34.862Z,21.65
2022-08-20T23:56:04.575Z,21.61
2022-08-20T23:58:33.379Z,21.65
